createdAt,value
2019-04-14T00:01:54.425Z,48.57
2019-04-14T00:04:24.811Z,47.00
2019-04-14T00:06:54.662Z,46.77
2019-04-14T00:09:23.688Z,44.10
2019-04-14T00:11:53.336Z,46.77
2019-04-14T00:14:22.792Z,44.63
2019-04-14T00:16:51.287Z,45.10
2019-04-14T00:19:19.695Z,45.43
2019-04-14T00:21:48.148Z,44.00
2019-04-14T00:24:16.536Z,46.33
2019-04-14T00:26:45.271Z,50.87
2019-04-14T00:29:15.169Z,49.27
2019-04-14T00:31:43.616Z,49.37
2019-04-14T00:34:13.849Z,49.23
2019-04-14T00:36:43.924Z,46.30
2019-04-14T00:39:20.463Z,49.20
2019-04-14T00:41:54.950Z,46.47
2019-04-14T00:44:41.006Z,50.97
2019-04-14T00:47:22.978Z,51.97
2019-04-14T00:49:51.370Z,50.70
2019-04-14T00:52:21.085Z,47.17
2019-04-14T00:54:50.109Z,52.87
2019-04-14T00:57:18.575Z,43.47
2019-04-14T00:59:47.016Z,46.07
2019-04-14T01:02:16.480Z,44.50
2019-04-14T01:04:45.098Z,43.70
2019-04-14T01:07:13.675Z,42.80
2019-04-14T01:09:42.115Z,44.30
2019-04-14T01:12:10.583Z,44.43
2019-04-14T01:14:38.987Z,43.40
2019-04-14T01:17:07.490Z,47.50
2019-04-14T01:19:35.894Z,42.87
2019-04-14T01:22:05.341Z,43.73
2019-04-14T01:24:33.838Z,47.17
2019-04-14T01:27:02.248Z,45.13
2019-04-14T01:29:31.868Z,45.17
2019-04-14T01:32:00.418Z,44.40
2019-04-14T01:34:28.843Z,46.30
2019-04-14T01:36:58.448Z,50.23
2019-04-14T01:39:26.963Z,44.67
2019-04-14T01:41:56.411Z,49.47
2019-04-14T01:44:26.308Z,45.13
2019-04-14T01:46:54.827Z,49.57
2019-04-14T01:49:23.226Z,45.87
2019-04-14T01:51:55.674Z,47.93
2019-04-14T01:54:41.026Z,44.40
2019-04-14T01:57:28.495Z,48.43
2019-04-14T01:59:58.884Z,50.43
2019-04-14T02:02:29.140Z,52.40
2019-04-14T02:04:57.604Z,48.40
2019-04-14T02:07:26.066Z,49.07
2019-04-14T02:09:55.367Z,47.27
2019-04-14T02:12:23.856Z,48.50
2019-04-14T02:14:52.279Z,45.33
2019-04-14T02:17:21.924Z,42.40
2019-04-14T02:19:50.565Z,44.03
2019-04-14T02:22:20.198Z,46.27
2019-04-14T02:24:48.747Z,44.53
2019-04-14T02:27:17.151Z,47.93
2019-04-14T02:29:45.570Z,47.40
2019-04-14T02:32:40.938Z,43.90
2019-04-14T02:35:11.168Z,44.07
2019-04-14T02:37:45.513Z,43.77
2019-04-14T02:40:08.781Z,44.97
2019-04-14T02:42:39.536Z,47.03
2019-04-14T02:45:12.699Z,44.93
2019-04-14T02:47:53.743Z,40.40
2019-04-14T02:52:46.473Z,43.03
2019-04-14T02:55:13.913Z,40.40
2019-04-14T02:57:39.990Z,42.37
2019-04-14T03:00:19.664Z,40.83
2019-04-14T03:05:10.282Z,42.87
2019-04-14T03:07:45.819Z,43.47
2019-04-14T03:10:12.670Z,40.50
2019-04-14T03:12:51.038Z,42.57
2019-04-14T03:15:14.600Z,42.47
2019-04-14T03:18:15.999Z,44.37
2019-04-14T03:20:32.376Z,40.23
2019-04-14T03:23:19.079Z,42.00
2019-04-14T03:25:46.331Z,41.53
2019-04-14T03:31:25.993Z,43.63
2019-04-14T03:38:40.203Z,42.53
2019-04-14T03:41:08.724Z,39.10
2019-04-14T03:46:09.690Z,41.23
2019-04-14T03:51:08.566Z,40.80
2019-04-14T03:53:47.239Z,41.03
2019-04-14T03:55:55.622Z,40.73
2019-04-14T03:58:20.489Z,40.93
2019-04-14T04:00:49.246Z,43.20
2019-04-14T04:03:17.690Z,41.50
2019-04-14T04:05:46.116Z,39.43
2019-04-14T04:27:13.537Z,42.33
2019-04-14T07:33:35.784Z,23.93
2019-04-14T07:36:22.023Z,25.80
2019-04-14T07:39:08.551Z,23.83
2019-04-14T07:41:38.591Z,23.87
2019-04-14T07:44:14.830Z,25.57
2019-04-14T07:46:43.686Z,23.00
2019-04-14T07:49:32.886Z,24.70
2019-04-14T07:52:19.431Z,22.93
2019-04-14T07:55:01.484Z,21.80
2019-04-14T07:57:49.946Z,23.77
2019-04-14T08:00:38.531Z,22.07
2019-04-14T08:03:08.576Z,20.77
2019-04-14T08:05:39.195Z,22.40
2019-04-14T08:08:07.640Z,23.50
2019-04-14T08:10:36.115Z,20.87
2019-04-14T08:13:04.591Z,20.17
2019-04-14T08:15:33.012Z,19.80
2019-04-14T08:18:01.417Z,20.13
2019-04-14T08:20:29.819Z,20.10
2019-04-14T08:22:58.231Z,21.07
2019-04-14T08:25:26.641Z,18.00
2019-04-14T08:27:55.049Z,17.07
2019-04-14T08:30:23.469Z,19.07
2019-04-14T08:32:51.868Z,18.73
2019-04-14T08:35:20.276Z,15.70
2019-04-14T08:38:03.657Z,16.69
2019-04-14T08:40:31.730Z,22.17
2019-04-14T08:43:01.774Z,15.73
2019-04-14T08:45:31.846Z,15.87
2019-04-14T08:48:07.815Z,15.10
2019-04-14T08:50:40.955Z,17.53
2019-04-14T08:53:11.009Z,19.40
2019-04-14T08:55:41.053Z,16.77
2019-04-14T08:58:20.116Z,18.27
2019-04-14T09:01:06.642Z,14.67
2019-04-14T09:03:39.643Z,16.77
2019-04-14T09:06:12.495Z,14.07
2019-04-14T09:08:48.270Z,14.83
2019-04-14T09:11:21.115Z,14.57
2019-04-14T09:13:49.539Z,16.23
2019-04-14T09:16:17.955Z,17.07
2019-04-14T09:18:46.375Z,15.13
2019-04-14T09:21:14.808Z,15.03
2019-04-14T09:23:43.235Z,13.23
2019-04-14T09:26:11.655Z,14.27
2019-04-14T09:28:40.073Z,13.87
2019-04-14T09:31:08.515Z,16.80
2019-04-14T09:33:37.218Z,13.37
2019-04-14T09:36:05.680Z,17.00
2019-04-14T09:38:34.127Z,13.83
2019-04-14T09:41:02.607Z,13.40
2019-04-14T09:43:31.013Z,14.67
2019-04-14T09:45:59.431Z,13.77
2019-04-14T09:48:27.834Z,12.17
2019-04-14T09:51:04.775Z,11.84
2019-04-14T09:53:25.964Z,13.00
2019-04-14T09:55:54.376Z,12.40
2019-04-14T10:01:51.734Z,14.30
2019-04-14T10:04:20.151Z,13.07
2019-04-14T10:06:48.628Z,12.53
2019-04-14T10:09:17.203Z,12.00
2019-04-14T10:11:48.880Z,12.33
2019-04-14T10:14:15.826Z,13.60
2019-04-14T10:16:44.519Z,12.87
2019-04-14T10:19:12.939Z,15.30
2019-04-14T10:21:41.350Z,14.37
2019-04-14T10:24:11.793Z,12.03
2019-04-14T10:26:40.269Z,14.10
2019-04-14T10:29:08.679Z,12.73
2019-04-14T10:31:37.092Z,12.87
2019-04-14T10:34:05.501Z,11.73
2019-04-14T10:36:33.574Z,12.10
2019-04-14T10:39:01.995Z,14.37
2019-04-14T10:41:30.488Z,12.07
2019-04-14T10:43:58.906Z,14.53
2019-04-14T10:46:27.631Z,12.00
2019-04-14T10:48:56.038Z,12.53
2019-04-14T10:51:30.324Z,12.53
2019-04-14T10:53:54.619Z,13.37
2019-04-14T10:56:23.036Z,12.53
2019-04-14T10:58:51.442Z,13.30
2019-04-14T11:01:19.904Z,14.17
2019-04-14T11:03:48.311Z,12.30
2019-04-14T11:06:21.310Z,14.70
2019-04-14T11:08:49.791Z,13.57
2019-04-14T11:11:18.239Z,15.17
2019-04-14T11:13:46.730Z,13.00
2019-04-14T11:16:15.191Z,17.23
2019-04-14T11:18:43.667Z,14.00
2019-04-14T11:21:12.127Z,13.73
2019-04-14T11:23:40.591Z,13.90
2019-04-14T11:26:09.001Z,15.70
2019-04-14T11:28:37.412Z,15.90
2019-04-14T11:31:06.138Z,14.47
2019-04-14T11:33:36.196Z,16.00
2019-04-14T11:36:23.133Z,14.50
2019-04-14T11:38:53.414Z,15.17
2019-04-14T11:41:23.470Z,13.60
2019-04-14T11:43:51.878Z,16.77
2019-04-14T11:46:20.287Z,14.77
2019-04-14T11:48:48.774Z,13.87
2019-04-14T11:51:17.406Z,16.57
2019-04-14T11:53:45.833Z,13.90
2019-04-14T11:56:14.378Z,16.37
2019-04-14T11:58:42.792Z,15.07
2019-04-14T12:01:12.859Z,16.67
2019-04-14T12:03:58.911Z,16.67
2019-04-14T12:06:43.766Z,19.37
2019-04-14T12:09:16.246Z,15.43
2019-04-14T12:11:44.747Z,17.30
2019-04-14T12:14:13.240Z,16.60
2019-04-14T12:16:41.782Z,18.47
2019-04-14T12:19:10.191Z,14.07
2019-04-14T12:21:38.607Z,16.87
2019-04-14T12:24:07.194Z,16.30
2019-04-14T12:26:35.595Z,16.97
2019-04-14T12:29:05.234Z,14.33
2019-04-14T12:31:35.262Z,14.20
2019-04-14T12:34:03.831Z,14.40
2019-04-14T12:36:40.466Z,15.37
2019-04-14T12:39:23.198Z,16.20
2019-04-14T12:42:10.299Z,12.83
2019-04-14T12:44:49.459Z,12.97
2019-04-14T12:47:22.079Z,15.10
2019-04-14T12:49:52.131Z,12.37
2019-04-14T12:52:22.239Z,17.33
2019-04-14T12:54:50.671Z,16.03
2019-04-14T12:57:20.730Z,13.57
2019-04-14T12:59:49.140Z,16.13
2019-04-14T13:02:19.186Z,13.63
2019-04-14T13:04:47.610Z,13.90
2019-04-14T13:07:16.263Z,15.10
2019-04-14T13:09:44.759Z,15.40
2019-04-14T13:12:13.234Z,15.13
2019-04-14T13:14:41.642Z,14.80
2019-04-14T13:17:10.222Z,14.20
2019-04-14T13:19:38.650Z,15.77
2019-04-14T13:22:07.138Z,15.03
2019-04-14T13:24:35.547Z,13.63
2019-04-14T13:27:03.967Z,15.67
2019-04-14T13:29:32.383Z,13.83
2019-04-14T13:32:00.794Z,16.63
2019-04-14T13:34:29.302Z,17.13
2019-04-14T13:36:57.707Z,15.73
2019-04-14T13:39:26.190Z,17.27
2019-04-14T13:41:54.950Z,16.27
2019-04-14T13:44:23.358Z,14.57
2019-04-14T13:46:51.771Z,15.73
2019-04-14T13:49:20.194Z,15.33
2019-04-14T13:51:48.607Z,17.23
2019-04-14T13:54:17.059Z,15.23
2019-04-14T13:56:45.463Z,17.03
2019-04-14T13:59:14.572Z,15.03
2019-04-14T14:01:42.978Z,18.17
2019-04-14T14:04:11.390Z,16.80
2019-04-14T14:06:39.822Z,15.73
2019-04-14T14:09:10.910Z,13.93
2019-04-14T14:11:56.138Z,16.90
2019-04-14T14:14:26.428Z,18.93
2019-04-14T14:17:11.441Z,14.43
2019-04-14T14:19:44.451Z,16.27
2019-04-14T14:22:14.494Z,13.90
2019-04-14T14:24:44.571Z,19.00
2019-04-14T14:27:12.983Z,14.97
2019-04-14T14:29:41.448Z,17.80
2019-04-14T14:32:17.275Z,14.13
2019-04-14T14:34:45.684Z,14.50
2019-04-14T14:37:14.090Z,16.53
2019-04-14T14:39:42.572Z,14.40
2019-04-14T14:42:10.990Z,14.73
2019-04-14T14:44:53.246Z,15.40
2019-04-14T14:47:23.297Z,17.13
2019-04-14T14:50:08.215Z,16.70
2019-04-14T14:52:37.981Z,17.60
2019-04-14T14:55:07.218Z,16.13
2019-04-14T14:57:35.685Z,16.30
2019-04-14T15:00:08.569Z,15.80
2019-04-14T15:02:36.985Z,14.53
2019-04-14T15:05:07.298Z,15.23
2019-04-14T15:07:35.698Z,14.70
2019-04-14T15:10:06.147Z,14.47
2019-04-14T15:12:34.558Z,13.40
2019-04-14T15:15:03.672Z,15.47
2019-04-14T15:17:32.076Z,13.60
2019-04-14T15:20:00.563Z,15.50
2019-04-14T15:22:28.970Z,14.63
2019-04-14T15:24:57.382Z,14.07
2019-04-14T15:27:26.044Z,14.20
2019-04-14T15:29:54.522Z,12.73
2019-04-14T15:32:22.981Z,15.17
2019-04-14T15:34:51.393Z,14.63
2019-04-14T15:37:19.911Z,12.97
2019-04-14T15:39:48.323Z,14.77
2019-04-14T15:42:16.769Z,13.10
2019-04-14T15:44:45.210Z,13.90
2019-04-14T15:47:13.616Z,13.50
2019-04-14T15:49:42.025Z,12.10
2019-04-14T15:52:10.451Z,12.90
2019-04-14T15:54:38.859Z,17.00
2019-04-14T15:57:27.020Z,13.17
2019-04-14T15:59:57.063Z,13.60
2019-04-14T16:02:33.434Z,14.07
2019-04-14T16:05:09.234Z,14.10
2019-04-14T16:07:45.280Z,14.87
2019-04-14T16:10:24.141Z,12.63
2019-04-14T16:13:00.199Z,13.00
2019-04-14T16:15:42.183Z,12.73
2019-04-14T16:18:27.531Z,12.10
2019-04-14T16:20:55.935Z,12.53
2019-04-14T16:23:24.386Z,13.63
2019-04-14T16:26:09.538Z,12.33
2019-04-14T16:28:42.539Z,12.63
2019-04-14T16:31:15.007Z,14.73
2019-04-14T16:34:01.291Z,13.63
2019-04-14T16:36:30.191Z,12.43
2019-04-14T16:38:58.686Z,13.07
2019-04-14T16:41:27.086Z,11.73
2019-04-14T16:43:55.502Z,11.67
2019-04-14T16:46:23.906Z,13.97
2019-04-14T16:48:52.315Z,11.00
2019-04-14T16:51:22.373Z,12.47
2019-04-14T16:54:02.477Z,16.77
2019-04-14T16:56:25.252Z,11.57
2019-04-14T16:58:57.859Z,12.70
2019-04-14T17:01:27.898Z,11.80
2019-04-14T17:03:56.339Z,13.70
2019-04-14T17:06:24.754Z,12.10
2019-04-14T17:08:53.206Z,13.77
2019-04-14T17:11:21.694Z,15.20
2019-04-14T17:13:51.750Z,12.63
2019-04-14T17:16:21.792Z,11.67
2019-04-14T17:18:54.478Z,11.77
2019-04-14T17:21:30.484Z,12.13
2019-04-14T17:24:15.589Z,15.63
2019-04-14T17:26:34.835Z,13.67
2019-04-14T17:29:27.463Z,12.47
2019-04-14T17:32:14.227Z,12.90
2019-04-14T17:34:46.980Z,13.33
2019-04-14T17:37:17.014Z,12.80
2019-04-14T17:39:47.059Z,12.70
2019-04-14T17:42:25.966Z,18.97
2019-04-14T17:44:56.008Z,14.67
2019-04-14T17:47:28.752Z,11.77
2019-04-14T17:49:58.811Z,11.37
2019-04-14T17:52:28.848Z,12.03
2019-04-14T17:55:07.730Z,12.03
2019-04-14T17:57:37.770Z,13.70
2019-04-14T18:00:11.767Z,11.30
2019-04-14T18:02:41.826Z,11.00
2019-04-14T18:05:11.931Z,10.77
2019-04-14T18:07:41.974Z,11.23
2019-04-14T18:10:12.261Z,10.37
2019-04-14T18:12:47.983Z,10.40
2019-04-14T18:15:33.607Z,9.77
2019-04-14T18:18:20.023Z,8.87
2019-04-14T18:20:50.338Z,7.93
2019-04-14T18:23:18.974Z,9.57
2019-04-14T18:25:47.383Z,8.10
2019-04-14T18:28:17.414Z,7.93
2019-04-14T18:31:03.686Z,7.83
2019-04-14T18:33:49.931Z,8.23
2019-04-14T18:36:35.026Z,8.33
2019-04-14T18:39:21.214Z,10.50
2019-04-14T18:42:07.158Z,9.80
2019-04-14T18:44:53.491Z,7.70
2019-04-14T18:47:23.530Z,8.00
2019-04-14T18:49:53.567Z,8.27
2019-04-14T18:52:39.904Z,8.10
2019-04-14T18:55:15.698Z,8.13
2019-04-14T18:57:51.747Z,8.13
2019-04-14T19:00:21.784Z,8.60
2019-04-14T19:02:50.190Z,8.60
2019-04-14T19:05:18.620Z,8.37
2019-04-14T19:07:47.011Z,9.13
2019-04-14T19:10:15.574Z,8.50
2019-04-14T19:12:45.646Z,8.80
2019-04-14T19:15:22.479Z,9.90
2019-04-14T19:17:58.356Z,9.33
2019-04-14T19:20:26.746Z,9.70
2019-04-14T19:22:55.142Z,9.10
2019-04-14T19:25:23.549Z,9.87
2019-04-14T19:27:51.947Z,8.87
2019-04-14T19:30:20.595Z,10.00
2019-04-14T19:32:48.994Z,9.87
2019-04-14T19:35:17.439Z,10.13
2019-04-14T19:37:45.855Z,11.80
2019-04-14T19:40:14.403Z,10.03
2019-04-14T19:42:43.040Z,10.47
2019-04-14T19:45:11.551Z,13.43
2019-04-14T19:47:39.954Z,12.13
2019-04-14T19:50:08.684Z,11.10
2019-04-14T19:52:37.082Z,10.97
2019-04-14T19:55:19.497Z,11.50
2019-04-14T19:57:37.138Z,11.60
2019-04-14T20:00:07.301Z,10.30
2019-04-14T20:02:35.695Z,10.03
2019-04-14T20:05:05.926Z,9.67
2019-04-14T20:07:34.327Z,9.07
2019-04-14T20:10:02.802Z,9.40
2019-04-14T20:12:31.439Z,10.20
2019-04-14T20:14:59.834Z,9.23
2019-04-14T20:17:29.888Z,9.63
2019-04-14T20:20:16.034Z,9.83
2019-04-14T20:22:46.094Z,9.37
2019-04-14T20:25:33.587Z,8.47
2019-04-14T20:27:59.643Z,9.80
2019-04-14T20:30:35.407Z,8.23
2019-04-14T20:33:03.883Z,8.43
2019-04-14T20:35:32.615Z,8.33
2019-04-14T20:38:01.014Z,7.83
2019-04-14T20:40:29.421Z,8.07
2019-04-14T20:42:58.127Z,8.70
2019-04-14T20:45:26.527Z,7.87
2019-04-14T20:47:55.002Z,8.03
2019-04-14T20:50:23.403Z,7.20
2019-04-14T20:52:51.803Z,7.20
2019-04-14T20:55:20.312Z,7.43
2019-04-14T20:57:48.714Z,7.97
2019-04-14T21:00:20.562Z,7.60
2019-04-14T21:03:01.195Z,7.37
2019-04-14T21:05:37.150Z,7.93
2019-04-14T21:08:10.379Z,7.40
2019-04-14T21:10:40.410Z,8.07
2019-04-14T21:13:18.938Z,7.60
2019-04-14T21:15:54.743Z,7.33
2019-04-14T21:18:24.816Z,7.60
2019-04-14T21:20:57.883Z,7.33
2019-04-14T21:23:27.915Z,7.40
2019-04-14T21:26:03.558Z,7.50
2019-04-14T21:28:36.290Z,6.90
2019-04-14T21:31:06.327Z,8.00
2019-04-14T21:33:45.409Z,7.00
2019-04-14T21:36:31.723Z,8.07
2019-04-14T21:39:01.734Z,7.80
2019-04-14T21:41:31.774Z,8.20
2019-04-14T21:44:00.166Z,8.53
2019-04-14T21:46:28.735Z,8.20
2019-04-14T21:48:57.127Z,9.07
2019-04-14T21:51:27.238Z,7.73
2019-04-14T21:53:55.656Z,8.43
2019-04-14T21:56:25.698Z,8.27
2019-04-14T21:58:55.738Z,8.37
2019-04-14T22:01:45.290Z,8.90
2019-04-14T22:04:30.558Z,7.60
2019-04-14T22:07:01.448Z,7.77
2019-04-14T22:09:34.296Z,9.33
2019-04-14T22:12:04.338Z,8.73
2019-04-14T22:14:32.764Z,9.07
2019-04-14T22:17:01.430Z,9.17
2019-04-14T22:19:30.394Z,9.17
2019-04-14T22:21:58.794Z,8.97
2019-04-14T22:24:27.215Z,9.20
2019-04-14T22:26:55.611Z,9.27
2019-04-14T22:29:24.014Z,9.30
2019-04-14T22:31:52.518Z,9.53
2019-04-14T22:34:21.003Z,9.50
2019-04-14T22:36:49.402Z,10.33
2019-04-14T22:39:18.195Z,10.83
2019-04-14T22:41:46.694Z,10.80
2019-04-14T22:44:15.097Z,10.73
2019-04-14T22:46:43.499Z,9.77
2019-04-14T22:49:11.900Z,11.10
2019-04-14T22:51:40.311Z,10.67
2019-04-14T22:54:08.997Z,10.97
2019-04-14T22:56:39.618Z,12.47
2019-04-14T22:59:07.543Z,12.63
2019-04-14T23:01:37.602Z,11.97
2019-04-14T23:04:13.682Z,11.50
2019-04-14T23:06:43.727Z,11.63
2019-04-14T23:09:30.363Z,12.10
2019-04-14T23:12:09.301Z,12.23
2019-04-14T23:14:45.070Z,12.00
2019-04-14T23:17:15.112Z,12.17
2019-04-14T23:19:51.127Z,12.90
2019-04-14T23:22:24.114Z,12.27
2019-04-14T23:24:52.555Z,12.63
2019-04-14T23:27:21.051Z,12.23
2019-04-14T23:29:49.460Z,11.87
2019-04-14T23:32:17.915Z,12.80
2019-04-14T23:34:46.330Z,14.03
2019-04-14T23:37:14.719Z,13.87
2019-04-14T23:39:43.123Z,14.53
2019-04-14T23:42:11.537Z,15.90
2019-04-14T23:44:39.946Z,14.33
2019-04-14T23:47:08.352Z,13.60
2019-04-14T23:49:36.815Z,13.33
2019-04-14T23:52:05.237Z,14.20
2019-04-14T23:54:33.659Z,13.03
2019-04-14T23:57:06.081Z,13.97
2019-04-14T23:59:32.279Z,13.93
